WIF1386 ENVA-ENAL
Flight info
| Callsign | WIF1386 |
|---|---|
| Flight time | 0h 43m |
| Altitude | 24000 |
| Route | GOGOX1B GOGOX DCT DEKEB DEKEB3Q |
| Aircraft | DH8D/M-SDE2E3FGRY/H |
Departure
| Time | 2026-04-27 15:00 |
|---|---|
| Airport | Trondheim Airport, Værnes (ENVA) |
Arrival
| Time | 2026-04-27 15:43 |
|---|---|
| Airport | Ålesund Airport (ENAL) |
| Time | Latitude | Longitude | Altitude | Speed | Heading |
|---|---|---|---|---|---|
| 2026-04-27 14:40 | 63.45418 | 10.91269 | 5 ft | 0 kts | 90° |
| 2026-04-27 14:52 | 63.45418 | 10.91270 | 5 ft | 0 kts | 90° |
| 2026-04-27 14:52 | 63.45418 | 10.91257 | 5 ft | 2 kts | 90° |
| 2026-04-27 14:52 | 63.45418 | 10.91223 | 5 ft | 2 kts | 90° |
| 2026-04-27 14:53 | 63.45418 | 10.91195 | 5 ft | 0 kts | 90° |
| 2026-04-27 14:53 | 63.45418 | 10.91194 | 5 ft | 0 kts | 90° |
| 2026-04-27 14:55 | 63.45419 | 10.91203 | 5 ft | 1 kts | 71° |
| 2026-04-27 14:55 | 63.45428 | 10.91204 | 5 ft | 2 kts | 327° |
| 2026-04-27 14:55 | 63.45494 | 10.91145 | 5 ft | 15 kts | 359° |
| 2026-04-27 14:56 | 63.45593 | 10.91183 | 5 ft | 14 kts | 71° |
| 2026-04-27 14:56 | 63.45597 | 10.91405 | 5 ft | 14 kts | 90° |
| 2026-04-27 14:56 | 63.45597 | 10.91633 | 6 ft | 13 kts | 89° |
| 2026-04-27 14:56 | 63.45597 | 10.91833 | 8 ft | 12 kts | 91° |
| 2026-04-27 14:57 | 63.45596 | 10.92038 | 8 ft | 13 kts | 90° |
| 2026-04-27 14:57 | 63.45595 | 10.92240 | 10 ft | 12 kts | 91° |
| 2026-04-27 14:57 | 63.45610 | 10.92416 | 12 ft | 10 kts | 25° |
| 2026-04-27 14:57 | 63.45667 | 10.92422 | 13 ft | 8 kts | 359° |
| 2026-04-27 14:58 | 63.45737 | 10.92420 | 14 ft | 7 kts | 357° |
| 2026-04-27 14:58 | 63.45760 | 10.92353 | 14 ft | 0 kts | 271° |
| 2026-04-27 14:59 | 63.45760 | 10.92351 | 14 ft | 3 kts | 271° |
| 2026-04-27 15:00 | 63.45762 | 10.91564 | 7 ft | 97 kts | 269° |
| 2026-04-27 15:00 | 63.45765 | 10.89595 | 122 ft | 143 kts | 270° |
| 2026-04-27 15:00 | 63.45766 | 10.87329 | 784 ft | 149 kts | 272° |
| 2026-04-27 15:00 | 63.45758 | 10.84987 | 1466 ft | 158 kts | 273° |
| 2026-04-27 15:01 | 63.45687 | 10.82442 | 2074 ft | 173 kts | 267° |
| 2026-04-27 15:01 | 63.45533 | 10.79707 | 2670 ft | 183 kts | 268° |
| 2026-04-27 15:01 | 63.45414 | 10.76921 | 3353 ft | 180 kts | 270° |
| 2026-04-27 15:01 | 63.45357 | 10.74076 | 3804 ft | 193 kts | 273° |
| 2026-04-27 15:02 | 63.45203 | 10.71045 | 4374 ft | 199 kts | 260° |
| 2026-04-27 15:02 | 63.44828 | 10.68010 | 4867 ft | 211 kts | 259° |
| 2026-04-27 15:02 | 63.44438 | 10.64866 | 5605 ft | 206 kts | 259° |
| 2026-04-27 15:02 | 63.44032 | 10.61883 | 6332 ft | 206 kts | 258° |
| 2026-04-27 15:03 | 63.43686 | 10.58718 | 6817 ft | 215 kts | 263° |
| 2026-04-27 15:03 | 63.43373 | 10.55442 | 7485 ft | 216 kts | 263° |
| 2026-04-27 15:03 | 63.43042 | 10.52099 | 7942 ft | 229 kts | 263° |
| 2026-04-27 15:03 | 63.42668 | 10.48608 | 8428 ft | 237 kts | 262° |
| 2026-04-27 15:04 | 63.42216 | 10.45125 | 9258 ft | 231 kts | 261° |
| 2026-04-27 15:04 | 63.41802 | 10.41729 | 9996 ft | 230 kts | 262° |
| 2026-04-27 15:04 | 63.41351 | 10.38219 | 10457 ft | 240 kts | 263° |
| 2026-04-27 15:04 | 63.40902 | 10.34532 | 10867 ft | 251 kts | 264° |
| 2026-04-27 15:05 | 63.40683 | 10.30714 | 11429 ft | 248 kts | 273° |
| 2026-04-27 15:05 | 63.40545 | 10.26894 | 12098 ft | 248 kts | 273° |
| 2026-04-27 15:05 | 63.40402 | 10.23058 | 12731 ft | 250 kts | 274° |
| 2026-04-27 15:05 | 63.40257 | 10.19224 | 13382 ft | 251 kts | 274° |
| 2026-04-27 15:06 | 63.39995 | 10.15320 | 13960 ft | 261 kts | 264° |
| 2026-04-27 15:06 | 63.39426 | 10.11454 | 14556 ft | 265 kts | 260° |
| 2026-04-27 15:06 | 63.38814 | 10.07553 | 15089 ft | 268 kts | 260° |
| 2026-04-27 15:06 | 63.38193 | 10.03626 | 15621 ft | 271 kts | 260° |
| 2026-04-27 15:07 | 63.37558 | 9.99572 | 15888 ft | 283 kts | 260° |
| 2026-04-27 15:07 | 63.36899 | 9.95421 | 16433 ft | 283 kts | 260° |
| 2026-04-27 15:07 | 63.36243 | 9.91287 | 16899 ft | 285 kts | 260° |
| 2026-04-27 15:07 | 63.35582 | 9.87128 | 17347 ft | 287 kts | 260° |
| 2026-04-27 15:08 | 63.34924 | 9.82992 | 17801 ft | 288 kts | 260° |
| 2026-04-27 15:08 | 63.34250 | 9.78765 | 18230 ft | 289 kts | 260° |
| 2026-04-27 15:08 | 63.33567 | 9.74481 | 18626 ft | 291 kts | 260° |
| 2026-04-27 15:08 | 63.32893 | 9.70273 | 19035 ft | 293 kts | 260° |
| 2026-04-27 15:09 | 63.32210 | 9.65998 | 19378 ft | 296 kts | 260° |
| 2026-04-27 15:09 | 63.31513 | 9.61658 | 19803 ft | 296 kts | 260° |
| 2026-04-27 15:09 | 63.30812 | 9.57302 | 20101 ft | 301 kts | 260° |
| 2026-04-27 15:09 | 63.30106 | 9.52931 | 20505 ft | 300 kts | 260° |
| 2026-04-27 15:10 | 63.29406 | 9.48598 | 20748 ft | 302 kts | 259° |
| 2026-04-27 15:10 | 63.28697 | 9.44228 | 21003 ft | 304 kts | 259° |
| 2026-04-27 15:10 | 63.27973 | 9.39771 | 21273 ft | 305 kts | 259° |
| 2026-04-27 15:10 | 63.27255 | 9.35365 | 21511 ft | 306 kts | 259° |
| 2026-04-27 15:11 | 63.26528 | 9.30906 | 21719 ft | 308 kts | 258° |
| 2026-04-27 15:11 | 63.25797 | 9.26440 | 21965 ft | 308 kts | 258° |
| 2026-04-27 15:11 | 63.25064 | 9.21967 | 22165 ft | 310 kts | 259° |
| 2026-04-27 15:11 | 63.24330 | 9.17504 | 22363 ft | 311 kts | 259° |
| 2026-04-27 15:12 | 63.23575 | 9.12920 | 22532 ft | 313 kts | 259° |
| 2026-04-27 15:12 | 63.22830 | 9.08413 | 22757 ft | 312 kts | 258° |
| 2026-04-27 15:12 | 63.22091 | 9.03955 | 22940 ft | 313 kts | 259° |
| 2026-04-27 15:12 | 63.21330 | 8.99358 | 23074 ft | 315 kts | 258° |
| 2026-04-27 15:13 | 63.20576 | 8.94825 | 23227 ft | 316 kts | 258° |
| 2026-04-27 15:13 | 63.19815 | 8.90265 | 23391 ft | 316 kts | 258° |
| 2026-04-27 15:13 | 63.19044 | 8.85652 | 23479 ft | 318 kts | 258° |
| 2026-04-27 15:13 | 63.18285 | 8.81087 | 23605 ft | 318 kts | 258° |
| 2026-04-27 15:14 | 63.17501 | 8.76427 | 23735 ft | 320 kts | 258° |
| 2026-04-27 15:14 | 63.16732 | 8.71860 | 23862 ft | 321 kts | 258° |
| 2026-04-27 15:14 | 63.15945 | 8.67207 | 23991 ft | 321 kts | 258° |
| 2026-04-27 15:14 | 63.15170 | 8.62643 | 24232 ft | 318 kts | 258° |
| 2026-04-27 15:15 | 63.14388 | 8.58039 | 24360 ft | 319 kts | 258° |
| 2026-04-27 15:15 | 63.13613 | 8.53470 | 24398 ft | 323 kts | 258° |
| 2026-04-27 15:15 | 63.12822 | 8.48821 | 24409 ft | 326 kts | 258° |
| 2026-04-27 15:15 | 63.12016 | 8.44100 | 24418 ft | 328 kts | 258° |
| 2026-04-27 15:16 | 63.11210 | 8.39389 | 24415 ft | 331 kts | 258° |
| 2026-04-27 15:16 | 63.10391 | 8.34618 | 24415 ft | 332 kts | 257° |
| 2026-04-27 15:16 | 63.09572 | 8.29858 | 24418 ft | 334 kts | 257° |
| 2026-04-27 15:16 | 63.08747 | 8.25079 | 24413 ft | 335 kts | 257° |
| 2026-04-27 15:17 | 63.07917 | 8.20275 | 24407 ft | 337 kts | 257° |
| 2026-04-27 15:17 | 63.07078 | 8.15425 | 24153 ft | 346 kts | 256° |
| 2026-04-27 15:17 | 63.06212 | 8.10426 | 23797 ft | 354 kts | 256° |
| 2026-04-27 15:17 | 63.05325 | 8.05347 | 23401 ft | 350 kts | 256° |
| 2026-04-27 15:18 | 63.04452 | 8.00430 | 23025 ft | 338 kts | 256° |
| 2026-04-27 15:18 | 63.03616 | 7.95711 | 22661 ft | 327 kts | 256° |
| 2026-04-27 15:18 | 63.02803 | 7.91120 | 22304 ft | 319 kts | 256° |
| 2026-04-27 15:18 | 63.02007 | 7.86617 | 21961 ft | 312 kts | 256° |
| 2026-04-27 15:19 | 63.01223 | 7.82196 | 21621 ft | 306 kts | 256° |
| 2026-04-27 15:19 | 63.00456 | 7.77869 | 21290 ft | 299 kts | 256° |
| 2026-04-27 15:19 | 62.99704 | 7.73637 | 20960 ft | 294 kts | 256° |
| 2026-04-27 15:19 | 62.98968 | 7.69487 | 20647 ft | 294 kts | 256° |
| 2026-04-27 15:20 | 62.98226 | 7.65276 | 20327 ft | 301 kts | 256° |
| 2026-04-27 15:20 | 62.97453 | 7.60908 | 19981 ft | 307 kts | 256° |
| 2026-04-27 15:20 | 62.96671 | 7.56508 | 19639 ft | 312 kts | 256° |
| 2026-04-27 15:20 | 62.95880 | 7.52079 | 19311 ft | 316 kts | 255° |
| 2026-04-27 15:21 | 62.95072 | 7.47575 | 18942 ft | 320 kts | 255° |
| 2026-04-27 15:21 | 62.94252 | 7.43018 | 18597 ft | 322 kts | 255° |
| 2026-04-27 15:21 | 62.93415 | 7.38379 | 18241 ft | 324 kts | 255° |
| 2026-04-27 15:21 | 62.92585 | 7.33790 | 17905 ft | 326 kts | 254° |
| 2026-04-27 15:22 | 62.91750 | 7.29188 | 17531 ft | 327 kts | 254° |
| 2026-04-27 15:22 | 62.90903 | 7.24526 | 17214 ft | 328 kts | 254° |
| 2026-04-27 15:22 | 62.90049 | 7.19839 | 16802 ft | 329 kts | 253° |
| 2026-04-27 15:22 | 62.89200 | 7.15193 | 16444 ft | 330 kts | 253° |
| 2026-04-27 15:23 | 62.88341 | 7.10506 | 16041 ft | 328 kts | 253° |
| 2026-04-27 15:23 | 62.87506 | 7.05960 | 15718 ft | 327 kts | 253° |
| 2026-04-27 15:23 | 62.86655 | 7.01337 | 15355 ft | 327 kts | 253° |
| 2026-04-27 15:23 | 62.85809 | 6.96748 | 15015 ft | 326 kts | 253° |
| 2026-04-27 15:24 | 62.84960 | 6.92157 | 14592 ft | 325 kts | 253° |
| 2026-04-27 15:24 | 62.84112 | 6.87584 | 14291 ft | 325 kts | 253° |
| 2026-04-27 15:24 | 62.83261 | 6.82994 | 13901 ft | 323 kts | 252° |
| 2026-04-27 15:24 | 62.82424 | 6.78500 | 13559 ft | 322 kts | 252° |
| 2026-04-27 15:25 | 62.81578 | 6.73961 | 13178 ft | 321 kts | 252° |
| 2026-04-27 15:25 | 62.80737 | 6.69466 | 12863 ft | 320 kts | 252° |
| 2026-04-27 15:25 | 62.79896 | 6.64978 | 12510 ft | 319 kts | 252° |
| 2026-04-27 15:25 | 62.79051 | 6.60480 | 12169 ft | 319 kts | 252° |
| 2026-04-27 15:26 | 62.78221 | 6.56072 | 11779 ft | 318 kts | 252° |
| 2026-04-27 15:26 | 62.77379 | 6.51610 | 11442 ft | 317 kts | 251° |
| 2026-04-27 15:26 | 62.76534 | 6.47140 | 11098 ft | 313 kts | 251° |
| 2026-04-27 15:26 | 62.75716 | 6.42883 | 10757 ft | 296 kts | 251° |
| 2026-04-27 15:27 | 62.74947 | 6.38860 | 10425 ft | 284 kts | 251° |
| 2026-04-27 15:27 | 62.74199 | 6.34938 | 10131 ft | 274 kts | 250° |
| 2026-04-27 15:27 | 62.73474 | 6.31147 | 9813 ft | 268 kts | 250° |
| 2026-04-27 15:27 | 62.72760 | 6.27388 | 9539 ft | 269 kts | 250° |
| 2026-04-27 15:28 | 62.72041 | 6.23620 | 9246 ft | 271 kts | 250° |
| 2026-04-27 15:28 | 62.71319 | 6.19847 | 8949 ft | 272 kts | 250° |
| 2026-04-27 15:28 | 62.70586 | 6.16022 | 8625 ft | 271 kts | 250° |
| 2026-04-27 15:28 | 62.69859 | 6.12241 | 8338 ft | 271 kts | 250° |
| 2026-04-27 15:29 | 62.69139 | 6.08511 | 8042 ft | 269 kts | 249° |
| 2026-04-27 15:29 | 62.68415 | 6.04771 | 7764 ft | 265 kts | 249° |
| 2026-04-27 15:29 | 62.67629 | 6.01187 | 7230 ft | 272 kts | 239° |
| 2026-04-27 15:29 | 62.66184 | 5.98591 | 6748 ft | 261 kts | 206° |
| 2026-04-27 15:30 | 62.64692 | 5.96911 | 6906 ft | 233 kts | 214° |
| 2026-04-27 15:30 | 62.63372 | 5.94916 | 6744 ft | 229 kts | 216° |
| 2026-04-27 15:30 | 62.62071 | 5.92926 | 6451 ft | 226 kts | 216° |
| 2026-04-27 15:30 | 62.60755 | 5.90928 | 5741 ft | 241 kts | 215° |
| 2026-04-27 15:31 | 62.59289 | 5.89296 | 5291 ft | 232 kts | 197° |
| 2026-04-27 15:31 | 62.57699 | 5.88870 | 4618 ft | 239 kts | 174° |
| 2026-04-27 15:31 | 62.56119 | 5.89962 | 3872 ft | 243 kts | 149° |
| 2026-04-27 15:31 | 62.54839 | 5.92211 | 3189 ft | 234 kts | 128° |
| 2026-04-27 15:32 | 62.54036 | 5.95141 | 2301 ft | 228 kts | 110° |
| 2026-04-27 15:32 | 62.53701 | 5.98368 | 1570 ft | 215 kts | 92° |
| 2026-04-27 15:32 | 62.53891 | 6.01415 | 1065 ft | 198 kts | 66° |
| 2026-04-27 15:32 | 62.54488 | 6.03935 | 728 ft | 180 kts | 63° |
| 2026-04-27 15:33 | 62.55003 | 6.06280 | 463 ft | 161 kts | 65° |
| 2026-04-27 15:33 | 62.55471 | 6.08495 | 871 ft | 169 kts | 67° |
| 2026-04-27 15:33 | 62.55922 | 6.10646 | 1879 ft | 161 kts | 64° |
| 2026-04-27 15:33 | 62.56496 | 6.12830 | 2516 ft | 173 kts | 60° |
| 2026-04-27 15:34 | 62.57138 | 6.15228 | 2780 ft | 200 kts | 59° |
| 2026-04-27 15:34 | 62.57960 | 6.17822 | 2801 ft | 208 kts | 53° |
| 2026-04-27 15:34 | 62.58821 | 6.20380 | 2767 ft | 215 kts | 54° |
| 2026-04-27 15:34 | 62.59664 | 6.23071 | 2807 ft | 217 kts | 56° |
| 2026-04-27 15:35 | 62.60562 | 6.25710 | 2824 ft | 220 kts | 49° |
| 2026-04-27 15:35 | 62.61651 | 6.28001 | 2948 ft | 213 kts | 40° |
| 2026-04-27 15:35 | 62.62787 | 6.30077 | 3295 ft | 216 kts | 39° |
| 2026-04-27 15:35 | 62.64083 | 6.31726 | 3608 ft | 224 kts | 20° |
| 2026-04-27 15:36 | 62.65641 | 6.32236 | 3876 ft | 228 kts | 359° |
| 2026-04-27 15:36 | 62.67153 | 6.31544 | 3979 ft | 222 kts | 340° |
| 2026-04-27 15:36 | 62.68514 | 6.29831 | 3992 ft | 231 kts | 323° |
| 2026-04-27 15:36 | 62.69570 | 6.27238 | 3846 ft | 231 kts | 303° |
| 2026-04-27 15:37 | 62.70186 | 6.24059 | 3806 ft | 224 kts | 288° |
| 2026-04-27 15:37 | 62.70466 | 6.20682 | 3747 ft | 223 kts | 275° |
| 2026-04-27 15:37 | 62.70448 | 6.17319 | 3549 ft | 228 kts | 267° |
| 2026-04-27 15:37 | 62.70332 | 6.13809 | 3550 ft | 238 kts | 266° |
| 2026-04-27 15:38 | 62.70010 | 6.10259 | 3623 ft | 237 kts | 253° |
| 2026-04-27 15:38 | 62.69376 | 6.06983 | 3376 ft | 233 kts | 242° |
| 2026-04-27 15:38 | 62.68547 | 6.04016 | 3120 ft | 225 kts | 237° |
| 2026-04-27 15:38 | 62.67706 | 6.01288 | 3153 ft | 208 kts | 233° |
| 2026-04-27 15:39 | 62.66826 | 5.98787 | 3121 ft | 213 kts | 232° |
| 2026-04-27 15:39 | 62.65815 | 5.96378 | 3236 ft | 221 kts | 223° |
| 2026-04-27 15:39 | 62.64658 | 5.94237 | 3191 ft | 218 kts | 217° |
| 2026-04-27 15:39 | 62.63401 | 5.92403 | 3155 ft | 216 kts | 210° |
| 2026-04-27 15:40 | 62.62075 | 5.90997 | 3029 ft | 205 kts | 199° |
| 2026-04-27 15:40 | 62.60738 | 5.90423 | 2769 ft | 194 kts | 178° |
| 2026-04-27 15:40 | 62.59405 | 5.90689 | 2395 ft | 189 kts | 168° |
| 2026-04-27 15:40 | 62.58193 | 5.91502 | 1947 ft | 175 kts | 152° |
| 2026-04-27 15:41 | 62.57171 | 5.92807 | 1882 ft | 170 kts | 139° |
| 2026-04-27 15:41 | 62.56335 | 5.94426 | 1953 ft | 145 kts | 132° |
| 2026-04-27 15:41 | 62.55656 | 5.96018 | 1785 ft | 144 kts | 125° |
| 2026-04-27 15:41 | 62.55101 | 5.97765 | 1507 ft | 138 kts | 116° |
| 2026-04-27 15:42 | 62.54710 | 5.99637 | 1147 ft | 133 kts | 102° |
| 2026-04-27 15:42 | 62.54518 | 6.01539 | 956 ft | 130 kts | 95° |
| 2026-04-27 15:42 | 62.54492 | 6.03489 | 695 ft | 129 kts | 81° |
| 2026-04-27 15:42 | 62.54771 | 6.05274 | 482 ft | 124 kts | 64° |
| 2026-04-27 15:43 | 62.55139 | 6.06958 | 308 ft | 121 kts | 64° |
| 2026-04-27 15:43 | 62.55502 | 6.08573 | 133 ft | 118 kts | 64° |
| 2026-04-27 15:43 | 62.55841 | 6.10124 | 60 ft | 104 kts | 64° |
| 2026-04-27 15:43 | 62.56055 | 6.11101 | 72 ft | 39 kts | 64° |
| 2026-04-27 15:44 | 62.56068 | 6.11369 | 72 ft | 13 kts | 151° |
| 2026-04-27 15:44 | 62.56023 | 6.11415 | 73 ft | 5 kts | 157° |
| 2026-04-27 15:44 | 62.55974 | 6.11390 | 73 ft | 10 kts | 211° |
| 2026-04-27 15:44 | 62.55923 | 6.11359 | 73 ft | 7 kts | 152° |
| 2026-04-27 15:45 | 62.55894 | 6.11391 | 73 ft | 2 kts | 152° |
| 2026-04-27 15:45 | 62.55893 | 6.11393 | 73 ft | 0 kts | 152° |